sensor_id;sensor_type;location;lat;lon;timestamp;temperature;humidity
29207;DHT22;16247;50.840;4.382;2023-06-19T00:01:55;20.60;99.90
29207;DHT22;16247;50.840;4.382;2023-06-19T00:04:23;20.50;99.90
29207;DHT22;16247;50.840;4.382;2023-06-19T00:07:03;20.50;99.90
29207;DHT22;16247;50.840;4.382;2023-06-19T00:09:36;20.30;99.90
29207;DHT22;16247;50.840;4.382;2023-06-19T00:12:11;20.30;99.90
29207;DHT22;16247;50.840;4.382;2023-06-19T00:14:41;20.30;99.90
29207;DHT22;16247;50.840;4.382;2023-06-19T00:17:08;20.50;99.90
29207;DHT22;16247;50.840;4.382;2023-06-19T00:26:18;20.20;99.90
29207;DHT22;16247;50.840;4.382;2023-06-19T00:29:00;20.10;99.90
29207;DHT22;16247;50.840;4.382;2023-06-19T00:31:27;19.90;99.90
29207;DHT22;16247;50.840;4.382;2023-06-19T00:33:55;19.90;99.90
29207;DHT22;16247;50.840;4.382;2023-06-19T00:38:52;20.00;99.90
29207;DHT22;16247;50.840;4.382;2023-06-19T00:41:22;20.00;99.90
29207;DHT22;16247;50.840;4.382;2023-06-19T00:43:53;19.80;99.90
29207;DHT22;16247;50.840;4.382;2023-06-19T00:46:19;19.80;99.90
29207;DHT22;16247;50.840;4.382;2023-06-19T00:48:45;19.80;99.90
29207;DHT22;16247;50.840;4.382;2023-06-19T00:51:17;19.80;99.90
29207;DHT22;16247;50.840;4.382;2023-06-19T00:53:47;19.80;99.90
29207;DHT22;16247;50.840;4.382;2023-06-19T00:56:20;19.70;99.90
29207;DHT22;16247;50.840;4.382;2023-06-19T00:58:51;19.70;99.90
29207;DHT22;16247;50.840;4.382;2023-06-19T01:01:27;19.70;99.90
29207;DHT22;16247;50.840;4.382;2023-06-19T01:04:01;19.70;99.90
29207;DHT22;16247;50.840;4.382;2023-06-19T01:06:36;19.50;99.90
29207;DHT22;16247;50.840;4.382;2023-06-19T01:09:52;19.60;99.90
29207;DHT22;16247;50.840;4.382;2023-06-19T01:46:37;20.00;99.90
29207;DHT22;16247;50.840;4.382;2023-06-19T01:49:07;20.10;99.90
29207;DHT22;16247;50.840;4.382;2023-06-19T01:51:38;20.10;99.90
29207;DHT22;16247;50.840;4.382;2023-06-19T01:54:04;20.00;99.90
29207;DHT22;16247;50.840;4.382;2023-06-19T01:56:34;20.00;99.90
29207;DHT22;16247;50.840;4.382;2023-06-19T01:59:00;20.00;99.90
29207;DHT22;16247;50.840;4.382;2023-06-19T02:01:32;20.00;99.90
29207;DHT22;16247;50.840;4.382;2023-06-19T02:03:58;20.10;99.90
29207;DHT22;16247;50.840;4.382;2023-06-19T02:06:26;20.00;99.90
29207;DHT22;16247;50.840;4.382;2023-06-19T02:08:51;20.00;99.90
29207;DHT22;16247;50.840;4.382;2023-06-19T02:11:18;20.10;99.90
29207;DHT22;16247;50.840;4.382;2023-06-19T02:13:44;20.10;99.90
29207;DHT22;16247;50.840;4.382;2023-06-19T02:16:10;20.00;99.90
29207;DHT22;16247;50.840;4.382;2023-06-19T02:18:35;20.10;99.90
29207;DHT22;16247;50.840;4.382;2023-06-19T02:21:22;20.10;99.90
29207;DHT22;16247;50.840;4.382;2023-06-19T02:23:58;20.10;99.90
29207;DHT22;16247;50.840;4.382;2023-06-19T02:26:25;20.00;99.90
29207;DHT22;16247;50.840;4.382;2023-06-19T02:28:54;20.00;99.90
29207;DHT22;16247;50.840;4.382;2023-06-19T02:31:23;20.10;99.90
29207;DHT22;16247;50.840;4.382;2023-06-19T02:33:54;20.10;99.90
29207;DHT22;16247;50.840;4.382;2023-06-19T02:36:20;20.10;99.90
29207;DHT22;16247;50.840;4.382;2023-06-19T02:38:50;20.10;99.90
29207;DHT22;16247;50.840;4.382;2023-06-19T02:41:35;20.10;99.90
29207;DHT22;16247;50.840;4.382;2023-06-19T02:44:41;20.20;99.90
29207;DHT22;16247;50.840;4.382;2023-06-19T02:52:46;20.00;99.90
29207;DHT22;16247;50.840;4.382;2023-06-19T02:55:15;20.10;99.90
29207;DHT22;16247;50.840;4.382;2023-06-19T02:57:43;20.00;99.90
29207;DHT22;16247;50.840;4.382;2023-06-19T03:00:17;19.90;99.90
29207;DHT22;16247;50.840;4.382;2023-06-19T03:02:46;19.80;99.90
29207;DHT22;16247;50.840;4.382;2023-06-19T03:05:14;19.80;99.90
29207;DHT22;16247;50.840;4.382;2023-06-19T03:11:03;19.80;99.90
29207;DHT22;16247;50.840;4.382;2023-06-19T03:14:25;19.80;99.90
29207;DHT22;16247;50.840;4.382;2023-06-19T03:17:15;19.80;99.90
29207;DHT22;16247;50.840;4.382;2023-06-19T03:19:41;19.70;99.90
29207;DHT22;16247;50.840;4.382;2023-06-19T03:22:35;19.70;99.90
29207;DHT22;16247;50.840;4.382;2023-06-19T03:25:01;19.60;99.90
29207;DHT22;16247;50.840;4.382;2023-06-19T03:27:31;19.60;99.90
29207;DHT22;16247;50.840;4.382;2023-06-19T03:30:04;19.60;99.90
29207;DHT22;16247;50.840;4.382;2023-06-19T03:32:36;19.40;99.90
29207;DHT22;16247;50.840;4.382;2023-06-19T03:35:22;19.40;99.90
29207;DHT22;16247;50.840;4.382;2023-06-19T03:53:29;19.30;99.90
29207;DHT22;16247;50.840;4.382;2023-06-19T03:55:57;19.40;99.90
29207;DHT22;16247;50.840;4.382;2023-06-19T03:58:26;19.40;99.90
29207;DHT22;16247;50.840;4.382;2023-06-19T04:00:51;19.50;99.90
29207;DHT22;16247;50.840;4.382;2023-06-19T04:03:18;19.50;99.90
29207;DHT22;16247;50.840;4.382;2023-06-19T04:06:06;19.40;99.90
29207;DHT22;16247;50.840;4.382;2023-06-19T04:08:34;19.50;99.90
29207;DHT22;16247;50.840;4.382;2023-06-19T04:11:33;19.50;99.90
29207;DHT22;16247;50.840;4.382;2023-06-19T04:16:56;19.20;99.90
29207;DHT22;16247;50.840;4.382;2023-06-19T04:19:23;19.20;99.90
29207;DHT22;16247;50.840;4.382;2023-06-19T04:21:55;19.20;99.90
29207;DHT22;16247;50.840;4.382;2023-06-19T04:24:20;19.30;99.90
29207;DHT22;16247;50.840;4.382;2023-06-19T04:26:51;19.20;99.90
29207;DHT22;16247;50.840;4.382;2023-06-19T04:29:37;19.30;99.90
29207;DHT22;16247;50.840;4.382;2023-06-19T04:32:11;19.30;99.90
29207;DHT22;16247;50.840;4.382;2023-06-19T04:34:43;19.30;99.90
29207;DHT22;16247;50.840;4.382;2023-06-19T04:37:13;19.20;99.90
29207;DHT22;16247;50.840;4.382;2023-06-19T04:39:46;19.30;99.90
29207;DHT22;16247;50.840;4.382;2023-06-19T04:42:19;19.20;99.90
29207;DHT22;16247;50.840;4.382;2023-06-19T04:44:48;19.10;99.90
29207;DHT22;16247;50.840;4.382;2023-06-19T04:47:23;19.10;99.90
29207;DHT22;16247;50.840;4.382;2023-06-19T04:49:51;19.20;99.90
29207;DHT22;16247;50.840;4.382;2023-06-19T04:52:18;19.10;99.90
29207;DHT22;16247;50.840;4.382;2023-06-19T04:57:19;19.10;99.90
29207;DHT22;16247;50.840;4.382;2023-06-19T04:59:45;19.20;99.90
29207;DHT22;16247;50.840;4.382;2023-06-19T05:02:11;19.30;99.90
29207;DHT22;16247;50.840;4.382;2023-06-19T05:04:36;19.40;99.90
29207;DHT22;16247;50.840;4.382;2023-06-19T05:07:02;19.70;99.90
29207;DHT22;16247;50.840;4.382;2023-06-19T05:09:28;19.70;99.90
29207;DHT22;16247;50.840;4.382;2023-06-19T05:11:55;19.60;99.90
29207;DHT22;16247;50.840;4.382;2023-06-19T05:14:20;19.60;99.90
29207;DHT22;16247;50.840;4.382;2023-06-19T05:16:46;19.80;99.90
29207;DHT22;16247;50.840;4.382;2023-06-19T05:19:12;19.70;99.90
29207;DHT22;16247;50.840;4.382;2023-06-19T05:21:37;19.80;99.90
29207;DHT22;16247;50.840;4.382;2023-06-19T05:24:03;19.70;99.90
29207;DHT22;16247;50.840;4.382;2023-06-19T05:26:29;19.60;99.90
29207;DHT22;16247;50.840;4.382;2023-06-19T05:28:54;19.70;99.90
29207;DHT22;16247;50.840;4.382;2023-06-19T05:31:20;19.90;99.90
29207;DHT22;16247;50.840;4.382;2023-06-19T05:33:45;20.20;99.90
29207;DHT22;16247;50.840;4.382;2023-06-19T05:36:11;20.30;99.90
29207;DHT22;16247;50.840;4.382;2023-06-19T05:38:37;20.30;99.90
29207;DHT22;16247;50.840;4.382;2023-06-19T05:41:03;19.90;99.90
29207;DHT22;16247;50.840;4.382;2023-06-19T05:43:28;19.80;99.90
29207;DHT22;16247;50.840;4.382;2023-06-19T05:45:54;20.00;99.90
29207;DHT22;16247;50.840;4.382;2023-06-19T05:48:21;19.90;99.90
29207;DHT22;16247;50.840;4.382;2023-06-19T05:50:47;19.90;99.90
29207;DHT22;16247;50.840;4.382;2023-06-19T05:53:13;19.80;99.90
29207;DHT22;16247;50.840;4.382;2023-06-19T05:55:38;19.70;99.90
29207;DHT22;16247;50.840;4.382;2023-06-19T05:58:04;19.70;99.90
29207;DHT22;16247;50.840;4.382;2023-06-19T06:00:31;19.60;99.90
29207;DHT22;16247;50.840;4.382;2023-06-19T06:02:57;19.60;99.90
29207;DHT22;16247;50.840;4.382;2023-06-19T06:05:26;19.60;99.90
29207;DHT22;16247;50.840;4.382;2023-06-19T06:07:53;19.60;99.90
29207;DHT22;16247;50.840;4.382;2023-06-19T06:10:23;19.70;99.90
29207;DHT22;16247;50.840;4.382;2023-06-19T06:12:49;19.60;99.90
29207;DHT22;16247;50.840;4.382;2023-06-19T06:15:15;19.50;99.90
29207;DHT22;16247;50.840;4.382;2023-06-19T06:17:41;19.60;99.90
29207;DHT22;16247;50.840;4.382;2023-06-19T06:20:08;19.50;99.90
29207;DHT22;16247;50.840;4.382;2023-06-19T06:22:41;19.30;99.90
29207;DHT22;16247;50.840;4.382;2023-06-19T06:25:07;19.10;99.90
29207;DHT22;16247;50.840;4.382;2023-06-19T06:27:33;19.30;99.90
29207;DHT22;16247;50.840;4.382;2023-06-19T06:29:59;19.30;99.90
29207;DHT22;16247;50.840;4.382;2023-06-19T06:32:25;19.20;99.90
29207;DHT22;16247;50.840;4.382;2023-06-19T06:34:51;19.10;99.90
29207;DHT22;16247;50.840;4.382;2023-06-19T06:37:17;19.20;99.90
29207;DHT22;16247;50.840;4.382;2023-06-19T06:39:51;19.40;99.90
29207;DHT22;16247;50.840;4.382;2023-06-19T06:42:17;19.40;99.90
29207;DHT22;16247;50.840;4.382;2023-06-19T06:44:42;19.30;99.90
29207;DHT22;16247;50.840;4.382;2023-06-19T06:47:08;19.10;99.90
29207;DHT22;16247;50.840;4.382;2023-06-19T06:49:34;19.30;99.90
29207;DHT22;16247;50.840;4.382;2023-06-19T06:52:05;19.50;99.90
29207;DHT22;16247;50.840;4.382;2023-06-19T06:54:31;19.50;99.90
29207;DHT22;16247;50.840;4.382;2023-06-19T06:56:57;19.40;99.90
29207;DHT22;16247;50.840;4.382;2023-06-19T06:59:24;19.40;99.90
29207;DHT22;16247;50.840;4.382;2023-06-19T07:01:51;19.60;99.90
29207;DHT22;16247;50.840;4.382;2023-06-19T07:04:16;19.60;99.90
29207;DHT22;16247;50.840;4.382;2023-06-19T07:06:42;19.70;99.90
29207;DHT22;16247;50.840;4.382;2023-06-19T07:09:09;19.50;99.90
29207;DHT22;16247;50.840;4.382;2023-06-19T07:11:35;19.70;99.90
29207;DHT22;16247;50.840;4.382;2023-06-19T07:14:02;19.60;99.90
29207;DHT22;16247;50.840;4.382;2023-06-19T07:16:28;19.60;99.90
29207;DHT22;16247;50.840;4.382;2023-06-19T07:18:54;19.70;99.90
29207;DHT22;16247;50.840;4.382;2023-06-19T07:21:19;19.70;99.90
29207;DHT22;16247;50.840;4.382;2023-06-19T07:23:45;19.90;99.90
29207;DHT22;16247;50.840;4.382;2023-06-19T07:26:13;19.70;99.90
29207;DHT22;16247;50.840;4.382;2023-06-19T07:28:39;19.70;99.90
29207;DHT22;16247;50.840;4.382;2023-06-19T07:31:05;19.70;99.90
29207;DHT22;16247;50.840;4.382;2023-06-19T07:33:31;20.10;99.90
29207;DHT22;16247;50.840;4.382;2023-06-19T07:35:57;20.30;99.90
29207;DHT22;16247;50.840;4.382;2023-06-19T07:38:23;20.30;99.90
29207;DHT22;16247;50.840;4.382;2023-06-19T07:40:49;20.20;99.90
29207;DHT22;16247;50.840;4.382;2023-06-19T07:43:14;20.10;99.90
29207;DHT22;16247;50.840;4.382;2023-06-19T07:45:40;20.10;99.90
29207;DHT22;16247;50.840;4.382;2023-06-19T07:48:06;20.10;99.90
29207;DHT22;16247;50.840;4.382;2023-06-19T07:50:32;20.20;99.90
29207;DHT22;16247;50.840;4.382;2023-06-19T07:52:58;20.50;99.90
29207;DHT22;16247;50.840;4.382;2023-06-19T07:55:23;20.50;99.90
29207;DHT22;16247;50.840;4.382;2023-06-19T07:57:49;20.40;99.90
29207;DHT22;16247;50.840;4.382;2023-06-19T08:00:15;20.50;99.90
29207;DHT22;16247;50.840;4.382;2023-06-19T08:02:41;20.60;99.90
29207;DHT22;16247;50.840;4.382;2023-06-19T08:05:08;20.80;99.90
29207;DHT22;16247;50.840;4.382;2023-06-19T08:07:35;20.70;99.90
29207;DHT22;16247;50.840;4.382;2023-06-19T08:10:01;20.80;99.90
29207;DHT22;16247;50.840;4.382;2023-06-19T08:12:29;20.90;99.90
29207;DHT22;16247;50.840;4.382;2023-06-19T08:14:54;20.80;99.90
29207;DHT22;16247;50.840;4.382;2023-06-19T08:17:20;20.90;99.90
29207;DHT22;16247;50.840;4.382;2023-06-19T08:19:46;20.90;99.90
29207;DHT22;16247;50.840;4.382;2023-06-19T08:22:11;20.80;99.90
29207;DHT22;16247;50.840;4.382;2023-06-19T08:24:37;20.90;99.90
29207;DHT22;16247;50.840;4.382;2023-06-19T08:27:05;20.90;99.90
29207;DHT22;16247;50.840;4.382;2023-06-19T08:29:31;20.60;99.90
29207;DHT22;16247;50.840;4.382;2023-06-19T08:31:57;20.90;99.90
29207;DHT22;16247;50.840;4.382;2023-06-19T08:34:22;20.90;99.90
29207;DHT22;16247;50.840;4.382;2023-06-19T08:36:48;20.90;99.90
29207;DHT22;16247;50.840;4.382;2023-06-19T08:39:14;21.10;99.90
29207;DHT22;16247;50.840;4.382;2023-06-19T08:41:40;21.30;99.90
29207;DHT22;16247;50.840;4.382;2023-06-19T08:44:07;21.60;99.90
29207;DHT22;16247;50.840;4.382;2023-06-19T08:46:34;21.60;99.90
29207;DHT22;16247;50.840;4.382;2023-06-19T08:49:03;21.40;99.90
29207;DHT22;16247;50.840;4.382;2023-06-19T08:51:29;21.50;99.90
29207;DHT22;16247;50.840;4.382;2023-06-19T08:54:02;21.50;99.90
29207;DHT22;16247;50.840;4.382;2023-06-19T08:56:29;21.30;99.90
29207;DHT22;16247;50.840;4.382;2023-06-19T08:59:11;21.30;99.90
29207;DHT22;16247;50.840;4.382;2023-06-19T09:01:37;21.40;99.90
29207;DHT22;16247;50.840;4.382;2023-06-19T09:04:13;21.50;99.90
29207;DHT22;16247;50.840;4.382;2023-06-19T09:06:59;21.50;99.90
29207;DHT22;16247;50.840;4.382;2023-06-19T09:09:26;21.50;99.90
29207;DHT22;16247;50.840;4.382;2023-06-19T09:14:42;21.70;99.90
29207;DHT22;16247;50.840;4.382;2023-06-19T09:17:26;21.70;99.90
29207;DHT22;16247;50.840;4.382;2023-06-19T09:19:54;21.50;99.90
29207;DHT22;16247;50.840;4.382;2023-06-19T09:22:23;21.60;99.90
29207;DHT22;16247;50.840;4.382;2023-06-19T09:24:50;22.00;99.90
29207;DHT22;16247;50.840;4.382;2023-06-19T09:27:18;21.80;99.90
29207;DHT22;16247;50.840;4.382;2023-06-19T09:29:48;21.80;99.90
29207;DHT22;16247;50.840;4.382;2023-06-19T09:32:27;21.90;99.90
29207;DHT22;16247;50.840;4.382;2023-06-19T09:34:55;22.00;99.90
29207;DHT22;16247;50.840;4.382;2023-06-19T09:37:24;22.10;99.90
29207;DHT22;16247;50.840;4.382;2023-06-19T09:39:55;22.20;99.90
29207;DHT22;16247;50.840;4.382;2023-06-19T09:42:36;22.30;99.90
29207;DHT22;16247;50.840;4.382;2023-06-19T09:45:07;22.40;99.90
29207;DHT22;16247;50.840;4.382;2023-06-19T09:47:44;22.40;99.90
29207;DHT22;16247;50.840;4.382;2023-06-19T09:50:15;22.40;99.90
29207;DHT22;16247;50.840;4.382;2023-06-19T09:52:42;22.30;99.90
29207;DHT22;16247;50.840;4.382;2023-06-19T09:55:09;22.30;99.90
29207;DHT22;16247;50.840;4.382;2023-06-19T09:57:38;22.60;99.90
29207;DHT22;16247;50.840;4.382;2023-06-19T10:00:09;22.50;99.90
29207;DHT22;16247;50.840;4.382;2023-06-19T10:02:41;22.40;99.90
29207;DHT22;16247;50.840;4.382;2023-06-19T10:05:07;22.50;99.90
29207;DHT22;16247;50.840;4.382;2023-06-19T10:07:41;22.70;99.90
29207;DHT22;16247;50.840;4.382;2023-06-19T10:10:09;22.70;99.90
29207;DHT22;16247;50.840;4.382;2023-06-19T10:12:41;22.90;99.90
29207;DHT22;16247;50.840;4.382;2023-06-19T10:15:27;23.00;99.90
29207;DHT22;16247;50.840;4.382;2023-06-19T10:18:04;23.10;99.90
29207;DHT22;16247;50.840;4.382;2023-06-19T10:20:31;23.20;99.90
29207;DHT22;16247;50.840;4.382;2023-06-19T10:23:12;23.20;99.90
29207;DHT22;16247;50.840;4.382;2023-06-19T10:25:41;23.00;99.90
29207;DHT22;16247;50.840;4.382;2023-06-19T10:28:24;23.10;99.90
29207;DHT22;16247;50.840;4.382;2023-06-19T10:31:05;23.30;99.90
29207;DHT22;16247;50.840;4.382;2023-06-19T10:33:33;23.20;99.90
29207;DHT22;16247;50.840;4.382;2023-06-19T10:36:00;23.10;99.90
29207;DHT22;16247;50.840;4.382;2023-06-19T10:38:27;23.10;99.90
29207;DHT22;16247;50.840;4.382;2023-06-19T10:40:53;23.40;99.90
29207;DHT22;16247;50.840;4.382;2023-06-19T10:43:24;23.40;99.90
29207;DHT22;16247;50.840;4.382;2023-06-19T10:45:53;23.50;99.90
29207;DHT22;16247;50.840;4.382;2023-06-19T10:48:21;23.60;99.90
